Time;durP1;ratioP1;P1;durP2;ratioP2;P2;SDS_P1;SDS_P2;PMS_P1;PMS_P2;Temp;Humidity;BMP_temperature;BMP_pressure;BME280_temperature;BME280_humidity;BME280_pressure;Samples;Min_cycle;Max_cycle;Signal;HPM_P1;HPM_P2
2021/10/31 00:02:06;;;;;;;24.20;17.85;;;;;;;9.60;100.00;99792.25;5038194;28;20283;-54
2021/10/31 00:04:33;;;;;;;24.85;18.00;;;;;;;9.61;100.00;99785.19;5027789;28;20512;-53
2021/10/31 00:07:00;;;;;;;26.00;18.35;;;;;;;9.52;100.00;99765.38;5047043;28;20063;-53
2021/10/31 00:09:26;;;;;;;26.08;18.17;;;;;;;9.61;100.00;99774.59;5041107;28;20060;-54
2021/10/31 00:11:53;;;;;;;24.23;17.05;;;;;;;9.58;100.00;99777.44;5044346;28;20156;-53
2021/10/31 00:14:19;;;;;;;23.75;17.38;;;;;;;9.60;100.00;99794.06;5037222;28;20035;-53
2021/10/31 00:16:46;;;;;;;24.30;18.25;;;;;;;9.60;100.00;99788.78;5046189;28;20052;-54
2021/10/31 00:19:14;;;;;;;26.25;17.98;;;;;;;9.60;100.00;99796.72;5057325;28;20044;-53
2021/10/31 00:21:41;;;;;;;22.08;16.85;;;;;;;9.58;100.00;99798.59;5046708;28;20041;-52
2021/10/31 00:24:08;;;;;;;28.35;18.55;;;;;;;9.59;100.00;99798.50;5039291;28;20037;-55
2021/10/31 00:26:34;;;;;;;28.02;18.38;;;;;;;9.55;100.00;99791.66;5046107;28;20044;-54
2021/10/31 00:29:01;;;;;;;27.92;18.85;;;;;;;9.57;100.00;99789.78;5045283;28;20132;-53
2021/10/31 00:31:27;;;;;;;24.65;17.50;;;;;;;9.58;100.00;99796.78;5045895;28;20057;-53
2021/10/31 00:33:54;;;;;;;22.63;16.50;;;;;;;9.57;100.00;99802.16;5038027;28;20033;-53
2021/10/31 00:36:20;;;;;;;26.95;18.27;;;;;;;9.55;100.00;99801.38;5050239;28;20045;-53
2021/10/31 00:38:47;;;;;;;25.15;17.98;;;;;;;9.57;100.00;99808.31;5043693;28;20132;-54
2021/10/31 00:41:13;;;;;;;22.23;16.88;;;;;;;9.58;100.00;99811.78;5046459;28;20160;-54
2021/10/31 00:43:42;;;;;;;22.45;17.90;;;;;;;9.56;100.00;99818.94;5031542;28;20069;-55
2021/10/31 00:46:08;;;;;;;26.98;19.30;;;;;;;9.59;100.00;99816.16;5046126;28;20045;-55
2021/10/31 00:48:35;;;;;;;25.83;18.30;;;;;;;9.59;100.00;99819.66;5034737;28;20052;-54
2021/10/31 00:51:02;;;;;;;23.95;17.98;;;;;;;9.60;100.00;99828.44;5043724;28;20049;-53
2021/10/31 00:53:29;;;;;;;23.13;17.77;;;;;;;9.59;100.00;99829.38;5033900;28;20049;-58
2021/10/31 00:55:56;;;;;;;24.90;17.92;;;;;;;9.60;100.00;99823.97;5045311;28;20064;-56
2021/10/31 00:58:23;;;;;;;23.23;17.45;;;;;;;9.62;100.00;99816.81;5042457;28;20053;-52
2021/10/31 01:00:49;;;;;;;24.92;17.95;;;;;;;9.61;100.00;99812.47;5037385;28;20055;-52
2021/10/31 01:03:16;;;;;;;27.58;19.83;;;;;;;9.62;100.00;99811.53;5032764;28;20056;-55
2021/10/31 01:05:48;;;;;;;25.38;17.95;;;;;;;9.64;100.00;99814.09;5036581;28;20052;-54
2021/10/31 01:08:33;;;;;;;28.02;18.83;;;;;;;9.68;100.00;99819.16;5044362;28;20412;-53
2021/10/31 01:11:16;;;;;;;23.35;17.13;;;;;;;9.66;100.00;99820.16;5040198;28;20056;-56
2021/10/31 01:13:53;;;;;;;28.95;18.88;;;;;;;9.67;100.00;99813.94;5032955;28;20487;-55
2021/10/31 01:16:46;;;;;;;23.00;17.75;;;;;;;9.70;100.00;99813.78;5043849;28;20042;-56
2021/10/31 01:19:43;;;;;;;26.77;17.63;;;;;;;9.69;100.00;99810.28;5044442;28;20106;-52
2021/10/31 01:22:15;;;;;;;26.15;18.08;;;;;;;9.69;100.00;99810.28;5046274;28;20061;-55
2021/10/31 01:24:49;;;;;;;23.50;17.92;;;;;;;9.68;100.00;99802.44;5035339;28;20048;-55
2021/10/31 01:27:45;;;;;;;22.27;17.27;;;;;;;9.63;100.00;99797.38;5042362;28;20064;-53
2021/10/31 01:30:28;;;;;;;22.77;16.75;;;;;;;9.63;100.00;99815.03;5042260;28;20050;-54
2021/10/31 01:33:11;;;;;;;25.50;18.17;;;;;;;9.66;100.00;99809.59;5038658;28;20068;-53
2021/10/31 01:35:50;;;;;;;22.42;17.48;;;;;;;9.67;100.00;99816.59;5043200;28;20577;-52
2021/10/31 01:38:25;;;;;;;22.65;17.33;;;;;;;9.53;100.00;99798.81;5041280;28;20056;-52
2021/10/31 01:41:02;;;;;;;23.45;17.83;;;;;;;9.64;100.00;99811.47;5042987;28;20057;-53
2021/10/31 01:43:40;;;;;;;26.88;18.10;;;;;;;9.62;100.00;99806.25;5035328;28;20057;-53
2021/10/31 01:46:17;;;;;;;24.15;18.05;;;;;;;9.62;100.00;99798.31;5044234;28;20044;-54
2021/10/31 01:49:19;;;;;;;26.65;18.17;;;;;;;9.62;100.00;99800.09;5041961;28;20068;-53
2021/10/31 01:51:55;;;;;;;23.60;17.60;;;;;;;9.63;100.00;99793.88;5039647;28;20523;-54
2021/10/31 01:54:29;;;;;;;27.88;19.58;;;;;;;9.66;100.00;99797.22;5030243;28;20525;-55
2021/10/31 01:57:00;;;;;;;24.02;17.88;;;;;;;9.67;100.00;99784.88;5040641;28;20050;-53
2021/10/31 01:59:31;;;;;;;24.40;18.38;;;;;;;9.67;100.00;99769.88;5039919;28;20051;-54
2021/10/31 02:02:00;;;;;;;25.35;18.77;;;;;;;9.68;100.00;99776.84;5042907;28;20041;-55
2021/10/31 02:04:30;;;;;;;27.02;18.45;;;;;;;9.65;100.00;99777.00;5035345;28;20122;-54
2021/10/31 02:06:59;;;;;;;25.45;18.02;;;;;;;9.59;100.00;99763.28;5042011;28;20399;-53
2021/10/31 02:09:29;;;;;;;26.25;18.90;;;;;;;9.56;100.00;99769.59;5047625;28;20036;-53
2021/10/31 02:11:57;;;;;;;27.35;18.98;;;;;;;9.57;100.00;99783.66;5044519;28;20044;-53
2021/10/31 02:14:24;;;;;;;23.77;17.52;;;;;;;9.50;100.00;99799.81;5033389;28;20048;-54
2021/10/31 02:16:55;;;;;;;24.92;18.25;;;;;;;9.49;100.00;99803.41;5041600;28;20041;-54
2021/10/31 02:19:27;;;;;;;24.65;18.15;;;;;;;9.52;100.00;99820.03;5050961;28;20082;-52
2021/10/31 02:21:59;;;;;;;23.85;18.83;;;;;;;9.56;100.00;99806.59;5039707;28;20466;-58
2021/10/31 02:24:26;;;;;;;24.25;18.38;;;;;;;9.56;100.00;99798.66;5034676;28;20045;-55
2021/10/31 02:26:52;;;;;;;27.58;19.27;;;;;;;9.61;100.00;99801.03;5039438;28;20056;-54
2021/10/31 02:29:19;;;;;;;26.17;18.95;;;;;;;9.52;100.00;99777.75;5044397;28;20045;-53
2021/10/31 02:31:46;;;;;;;24.95;19.17;;;;;;;9.62;100.00;99782.47;5042482;28;20044;-53
2021/10/31 02:34:13;;;;;;;28.10;20.20;;;;;;;9.56;100.00;99760.81;5032226;28;20137;-53
2021/10/31 02:36:39;;;;;;;24.73;18.55;;;;;;;9.47;100.00;99757.69;5041079;28;20059;-54
2021/10/31 02:39:08;;;;;;;24.08;19.33;;;;;;;9.63;100.00;99778.03;5039656;28;20482;-53
2021/10/31 02:41:37;;;;;;;24.45;19.27;;;;;;;9.58;100.00;99773.00;5031548;28;20833;-54
2021/10/31 02:44:04;;;;;;;25.20;19.25;;;;;;;9.62;100.00;99778.97;5031076;28;20410;-52
2021/10/31 02:46:34;;;;;;;26.73;19.23;;;;;;;9.62;100.00;99792.19;5040499;28;20044;-53
2021/10/31 02:49:02;;;;;;;24.88;19.15;;;;;;;9.60;100.00;99789.59;5038547;28;20070;-53
2021/10/31 02:51:51;;;;;;;26.58;19.42;;;;;;;9.60;100.00;99783.50;5044066;28;20045;-52
2021/10/31 02:54:26;;;;;;;27.60;20.02;;;;;;;9.62;100.00;99777.16;5031109;28;20057;-53
2021/10/31 02:57:17;;;;;;;24.83;19.05;;;;;;;9.62;100.00;99763.09;5041397;28;20045;-53
2021/10/31 02:59:50;;;;;;;29.13;20.40;;;;;;;9.51;100.00;99747.81;5036661;28;20044;-54
2021/10/31 03:02:17;;;;;;;28.50;20.73;;;;;;;9.54;100.00;99752.09;5042270;28;20527;-54
2021/10/31 03:04:45;;;;;;;27.08;19.67;;;;;;;9.66;100.00;99767.28;5029951;28;20049;-54
2021/10/31 03:07:13;;;;;;;25.10;18.27;;;;;;;9.66;100.00;99762.88;5043993;28;20048;-55
2021/10/31 03:09:39;;;;;;;26.67;20.80;;;;;;;9.67;100.00;99771.66;5038896;28;20398;-53
2021/10/31 03:12:08;;;;;;;28.83;21.15;;;;;;;9.67;100.00;99774.28;5043397;28;20164;-54
2021/10/31 03:14:36;;;;;;;26.65;20.38;;;;;;;9.70;100.00;99776.78;5033228;28;20047;-55
2021/10/31 03:17:04;;;;;;;29.17;19.60;;;;;;;9.70;100.00;99779.44;5044469;28;20045;-54
2021/10/31 03:19:32;;;;;;;26.95;19.83;;;;;;;9.70;100.00;99777.63;5040278;28;20083;-54
2021/10/31 03:21:58;;;;;;;30.92;20.83;;;;;;;9.70;100.00;99774.13;5038801;28;20483;-54
2021/10/31 03:24:25;;;;;;;23.98;18.73;;;;;;;9.65;100.00;99771.72;5031289;28;20046;-56
2021/10/31 03:26:52;;;;;;;27.27;20.67;;;;;;;9.62;100.00;99781.59;5042596;28;20060;-53
2021/10/31 03:29:21;;;;;;;28.02;21.65;;;;;;;9.52;100.00;99764.53;5038848;28;20053;-53
2021/10/31 03:31:47;;;;;;;30.52;21.63;;;;;;;9.56;100.00;99774.88;5043426;28;20037;-53
2021/10/31 03:34:14;;;;;;;30.60;21.65;;;;;;;9.52;100.00;99775.09;5032842;28;20095;-53
2021/10/31 03:36:40;;;;;;;31.42;23.00;;;;;;;9.49;100.00;99784.03;5036333;28;20045;-54
2021/10/31 03:39:07;;;;;;;33.45;24.35;;;;;;;9.45;100.00;99775.41;5041148;28;20083;-53
2021/10/31 03:41:35;;;;;;;31.55;22.98;;;;;;;9.41;100.00;99781.81;5037805;28;20052;-53
2021/10/31 03:44:02;;;;;;;32.75;23.40;;;;;;;9.35;100.00;99782.13;5029127;28;20052;-55
2021/10/31 03:46:29;;;;;;;33.72;24.98;;;;;;;9.32;100.00;99794.63;5039483;28;20137;-53
2021/10/31 03:48:56;;;;;;;32.63;24.17;;;;;;;9.29;100.00;99800.91;5042028;28;20041;-52
2021/10/31 03:51:22;;;;;;;34.75;24.02;;;;;;;9.26;100.00;99795.81;5044143;28;20040;-53
2021/10/31 03:53:49;;;;;;;33.00;24.75;;;;;;;9.22;100.00;99794.25;5032943;28;20057;-53
2021/10/31 03:56:15;;;;;;;36.10;26.45;;;;;;;9.24;100.00;99796.81;5037244;28;20970;-54
2021/10/31 03:58:42;;;;;;;36.25;27.00;;;;;;;9.22;100.00;99796.91;5037571;28;20042;-55
2021/10/31 04:01:08;;;;;;;37.50;27.42;;;;;;;9.26;100.00;99794.97;5044109;28;20587;-54
2021/10/31 04:03:36;;;;;;;41.28;29.67;;;;;;;9.24;100.00;99788.91;5035160;28;22152;-55
2021/10/31 04:06:02;;;;;;;36.58;28.92;;;;;;;9.14;100.00;99770.84;5035227;28;20128;-55
2021/10/31 04:08:29;;;;;;;41.50;30.55;;;;;;;9.25;100.00;99793.25;5038035;28;20155;-54
2021/10/31 04:10:55;;;;;;;40.53;28.85;;;;;;;9.22;100.00;99782.84;5041684;28;20127;-54
2021/10/31 04:13:23;;;;;;;36.67;27.08;;;;;;;9.16;100.00;99781.34;5036590;28;21500;-54
2021/10/31 04:15:50;;;;;;;40.00;29.20;;;;;;;9.14;100.00;99791.13;5037143;28;20409;-53
2021/10/31 04:18:17;;;;;;;36.28;26.77;;;;;;;9.09;100.00;99787.88;5043631;28;20045;-54
2021/10/31 04:20:43;;;;;;;37.05;27.50;;;;;;;9.07;100.00;99777.41;5047557;28;20056;-54
2021/10/31 04:23:10;;;;;;;41.83;28.08;;;;;;;9.04;100.00;99782.81;5041872;28;20045;-54
2021/10/31 04:25:36;;;;;;;37.20;27.83;;;;;;;8.99;100.00;99795.41;5037753;28;20041;-56
2021/10/31 04:28:03;;;;;;;41.05;28.40;;;;;;;9.00;100.00;99799.75;5041135;28;20495;-53
2021/10/31 04:30:30;;;;;;;40.75;29.58;;;;;;;8.98;100.00;99798.09;5047589;28;20041;-55
2021/10/31 04:32:56;;;;;;;40.30;28.70;;;;;;;8.94;100.00;99800.06;5043613;28;20042;-52
2021/10/31 04:35:23;;;;;;;39.28;27.33;;;;;;;8.93;100.00;99802.78;5036999;28;20051;-52
2021/10/31 04:37:49;;;;;;;34.08;26.98;;;;;;;8.89;100.00;99795.94;5038078;28;20486;-53
2021/10/31 04:40:20;;;;;;;35.17;27.05;;;;;;;8.88;100.00;99802.16;5047765;28;20056;-53
2021/10/31 04:42:47;;;;;;;39.63;29.00;;;;;;;8.87;100.00;99801.28;5041288;28;20079;-54
2021/10/31 04:45:14;;;;;;;37.72;27.50;;;;;;;8.85;100.00;99791.72;5036927;28;20046;-53
2021/10/31 04:47:40;;;;;;;38.72;28.67;;;;;;;8.85;100.00;99808.44;5042451;28;20052;-54
2021/10/31 04:50:07;;;;;;;35.33;27.05;;;;;;;8.84;100.00;99808.50;5040438;28;20064;-53
2021/10/31 04:52:33;;;;;;;37.22;27.58;;;;;;;8.83;100.00;99804.16;5044783;28;20045;-54
2021/10/31 04:55:00;;;;;;;36.63;27.83;;;;;;;8.84;100.00;99808.50;5033001;28;20873;-54
2021/10/31 04:57:26;;;;;;;38.50;27.45;;;;;;;8.82;100.00;99802.44;5048055;28;20053;-53
2021/10/31 04:59:53;;;;;;;35.78;27.20;;;;;;;8.78;100.00;99799.97;5044384;28;21159;-54
2021/10/31 05:02:19;;;;;;;38.90;28.20;;;;;;;8.79;100.00;99798.19;5045501;28;20048;-53
2021/10/31 05:04:46;;;;;;;38.50;27.50;;;;;;;8.78;100.00;99794.69;5035057;28;20560;-55
2021/10/31 05:07:15;;;;;;;37.38;27.23;;;;;;;8.76;100.00;99786.00;5045967;28;20409;-54
2021/10/31 05:09:42;;;;;;;38.22;27.23;;;;;;;8.76;100.00;99790.41;5039732;28;20793;-54
2021/10/31 05:12:08;;;;;;;38.95;28.05;;;;;;;8.74;100.00;99787.00;5039508;28;20046;-54
2021/10/31 05:14:36;;;;;;;40.38;30.13;;;;;;;8.74;100.00;99789.63;5038152;28;20045;-53
2021/10/31 05:17:03;;;;;;;40.50;28.80;;;;;;;8.73;100.00;99788.78;5044930;28;20072;-54
2021/10/31 05:19:29;;;;;;;35.97;26.92;;;;;;;8.69;100.00;99789.00;5047271;28;20045;-53
2021/10/31 05:21:56;;;;;;;42.50;28.35;;;;;;;8.66;100.00;99792.63;5045451;28;20049;-53
2021/10/31 05:24:22;;;;;;;37.15;27.17;;;;;;;8.63;100.00;99789.31;5035671;28;20049;-53
2021/10/31 05:26:48;;;;;;;35.17;26.98;;;;;;;8.62;100.00;99792.88;5041382;28;20052;-55
2021/10/31 05:29:15;;;;;;;35.15;25.90;;;;;;;8.62;100.00;99803.44;5036920;28;20041;-54
2021/10/31 05:31:42;;;;;;;38.58;27.50;;;;;;;8.64;100.00;99802.44;5045740;28;20433;-53
2021/10/31 05:34:10;;;;;;;35.58;26.77;;;;;;;8.66;100.00;99792.63;5035918;28;20045;-54
2021/10/31 05:36:37;;;;;;;38.33;27.70;;;;;;;8.66;100.00;99787.34;5037891;28;20051;-54
2021/10/31 05:39:04;;;;;;;37.50;26.70;;;;;;;8.69;100.00;99787.22;5042343;28;20723;-52
2021/10/31 05:41:31;;;;;;;38.25;27.13;;;;;;;8.74;100.00;99781.72;5046374;28;20045;-51
2021/10/31 05:43:57;;;;;;;37.22;27.25;;;;;;;8.75;100.00;99784.28;5035762;28;20060;-53
2021/10/31 05:46:24;;;;;;;35.47;26.67;;;;;;;8.80;100.00;99770.88;5040367;28;20490;-54
2021/10/31 05:48:50;;;;;;;38.25;26.08;;;;;;;8.86;100.00;99780.25;5044116;28;20120;-53
2021/10/31 05:51:17;;;;;;;39.10;27.20;;;;;;;8.89;100.00;99774.81;5042854;28;20413;-54
2021/10/31 05:53:43;;;;;;;34.50;26.08;;;;;;;8.86;100.00;99764.41;5043851;28;20048;-52
2021/10/31 05:56:11;;;;;;;38.25;27.67;;;;;;;8.91;100.00;99762.41;5033585;28;20041;-55
2021/10/31 05:58:38;;;;;;;35.95;27.02;;;;;;;8.96;100.00;99760.38;5042456;28;20048;-54
2021/10/31 06:01:04;;;;;;;36.38;27.20;;;;;;;9.01;100.00;99766.28;5041254;28;20049;-54
2021/10/31 06:03:31;;;;;;;35.95;26.45;;;;;;;9.04;100.00;99766.13;5041423;28;20044;-53
2021/10/31 06:06:00;;;;;;;39.83;26.95;;;;;;;9.09;100.00;99756.19;5034725;28;20045;-52
2021/10/31 06:08:26;;;;;;;35.55;27.05;;;;;;;9.13;100.00;99742.72;5043506;28;20506;-53
2021/10/31 06:10:53;;;;;;;36.65;27.35;;;;;;;9.14;100.00;99735.66;5042700;28;20048;-53
2021/10/31 06:13:33;;;;;;;;;;;;;;;9.19;100.00;99746.00;5035508;28;20074;-54
2021/10/31 06:16:00;;;;;;;37.03;26.95;;;;;;;9.05;100.00;99721.16;5035997;28;20250;-55
2021/10/31 06:18:27;;;;;;;37.55;26.38;;;;;;;9.28;100.00;99741.13;5046083;28;20134;-55
2021/10/31 06:20:53;;;;;;;38.28;25.80;;;;;;;9.28;100.00;99741.13;5030120;28;20077;-54
2021/10/31 06:23:20;;;;;;;37.03;25.60;;;;;;;9.28;100.00;99734.97;5040097;28;20040;-52
2021/10/31 06:25:46;;;;;;;40.88;27.63;;;;;;;9.25;100.00;99730.69;5033963;28;20045;-53
2021/10/31 06:28:13;;;;;;;38.15;27.65;;;;;;;9.34;100.00;99746.06;5037369;28;20051;-52
2021/10/31 06:30:39;;;;;;;37.17;27.13;;;;;;;9.35;100.00;99741.63;5031071;28;20406;-54
2021/10/31 06:33:06;;;;;;;33.10;25.73;;;;;;;9.38;100.00;99747.63;5038699;28;20110;-53
2021/10/31 06:35:32;;;;;;;33.67;24.42;;;;;;;9.28;100.00;99719.97;5027969;28;20049;-55
2021/10/31 06:38:01;;;;;;;39.78;27.48;;;;;;;9.41;100.00;99736.88;5037844;28;20048;-54
2021/10/31 06:40:28;;;;;;;36.05;26.48;;;;;;;9.42;100.00;99738.59;5038208;28;20844;-55
2021/10/31 06:42:54;;;;;;;37.80;27.70;;;;;;;9.45;100.00;99727.00;5041852;28;20057;-54
2021/10/31 06:45:21;;;;;;;35.78;26.25;;;;;;;9.46;100.00;99731.34;5031660;28;20040;-53
2021/10/31 06:47:48;;;;;;;35.78;26.30;;;;;;;9.49;100.00;99737.31;5038346;28;20037;-54
2021/10/31 06:50:14;;;;;;;37.83;27.77;;;;;;;9.55;100.00;99740.59;5035843;28;20064;-55
2021/10/31 06:52:41;;;;;;;34.90;26.52;;;;;;;9.55;100.00;99730.00;5041299;28;20052;-54
2021/10/31 06:55:10;;;;;;;37.35;28.17;;;;;;;9.63;100.00;99727.81;5037446;28;20049;-51
2021/10/31 06:57:40;;;;;;;34.38;26.52;;;;;;;9.66;100.00;99736.44;5036390;28;20065;-53
2021/10/31 07:00:08;;;;;;;36.40;26.63;;;;;;;9.70;100.00;99737.13;5041360;28;20049;-53
2021/10/31 07:02:35;;;;;;;37.58;27.40;;;;;;;9.74;100.00;99728.09;5035261;28;20418;-53
2021/10/31 07:05:02;;;;;;;34.83;25.73;;;;;;;9.76;100.00;99721.75;5034558;28;20041;-53
2021/10/31 07:07:29;;;;;;;37.22;26.50;;;;;;;9.81;100.00;99722.38;5033146;28;20045;-54
2021/10/31 07:09:56;;;;;;;33.42;25.38;;;;;;;9.88;100.00;99717.63;5039746;28;20049;-53
2021/10/31 07:12:22;;;;;;;35.13;27.23;;;;;;;9.96;100.00;99722.47;5028683;28;20044;-53
2021/10/31 07:14:49;;;;;;;35.63;26.50;;;;;;;10.02;100.00;99715.06;5037727;28;20052;-56
2021/10/31 07:17:15;;;;;;;38.83;27.10;;;;;;;10.16;100.00;99714.28;5035365;28;20069;-53
2021/10/31 07:19:42;;;;;;;37.78;27.10;;;;;;;10.30;100.00;99721.47;5039901;28;20057;-56
2021/10/31 07:22:08;;;;;;;39.50;28.33;;;;;;;10.42;100.00;99705.75;5038152;28;20045;-55
2021/10/31 07:24:35;;;;;;;36.38;27.58;;;;;;;10.53;100.00;99703.38;5042416;28;20060;-55
2021/10/31 07:27:01;;;;;;;35.47;26.17;;;;;;;10.63;100.00;99711.63;5029949;28;20054;-54
2021/10/31 07:29:28;;;;;;;38.00;26.88;;;;;;;10.75;100.00;99704.75;5041601;28;20060;-54
2021/10/31 07:31:57;;;;;;;37.55;27.02;;;;;;;10.92;100.00;99704.59;5042671;28;20045;-52
2021/10/31 07:34:26;;;;;;;31.27;24.15;;;;;;;11.00;100.00;99696.22;5042848;28;20048;-54
2021/10/31 07:36:53;;;;;;;35.72;26.67;;;;;;;11.05;100.00;99691.47;5027023;28;20049;-54
2021/10/31 07:39:19;;;;;;;35.33;26.08;;;;;;;11.11;100.00;99696.41;5040638;28;20049;-54
2021/10/31 07:41:46;;;;;;;35.65;26.27;;;;;;;11.20;100.00;99699.34;5037765;28;20056;-54
2021/10/31 07:44:12;;;;;;;34.05;26.08;;;;;;;11.31;100.00;99700.53;5040703;28;20059;-54
2021/10/31 07:46:39;;;;;;;32.95;24.85;;;;;;;11.40;100.00;99681.38;5031992;28;20476;-54
2021/10/31 07:49:10;;;;;;;31.98;24.70;;;;;;;11.55;100.00;99685.75;5040231;28;20498;-54
2021/10/31 07:51:37;;;;;;;32.67;23.98;;;;;;;11.64;100.00;99669.28;5040760;28;20059;-54
2021/10/31 07:54:04;;;;;;;34.63;25.48;;;;;;;11.86;100.00;99687.34;5040646;28;20049;-54
2021/10/31 07:56:34;;;;;;;35.33;24.42;;;;;;;11.94;100.00;99685.94;5033863;28;20041;-57
2021/10/31 07:59:01;;;;;;;31.73;22.95;;;;;;;12.05;100.00;99673.78;5043988;28;20056;-54
2021/10/31 08:01:27;;;;;;;31.83;23.70;;;;;;;12.17;100.00;99667.66;5044669;28;20052;-53
2021/10/31 08:03:54;;;;;;;29.60;23.08;;;;;;;12.29;100.00;99669.50;5045281;28;20045;-53
2021/10/31 08:06:22;;;;;;;29.40;23.38;;;;;;;12.54;100.00;99664.31;5032272;28;20084;-54
2021/10/31 08:08:49;;;;;;;28.58;22.95;;;;;;;12.74;97.91;99662.97;5042319;28;20050;-53
2021/10/31 08:11:15;;;;;;;26.42;21.85;;;;;;;12.87;97.13;99660.34;5044676;28;20160;-53
2021/10/31 08:13:47;;;;;;;25.90;21.30;;;;;;;13.03;95.38;99658.34;5039987;28;20037;-54
2021/10/31 08:16:16;;;;;;;27.23;20.95;;;;;;;13.33;92.03;99655.38;5040739;28;20103;-55
2021/10/31 08:18:43;;;;;;;24.38;18.73;;;;;;;13.32;92.61;99651.03;5037096;28;20053;-53
2021/10/31 08:21:10;;;;;;;26.00;19.73;;;;;;;13.38;92.87;99650.56;5041398;28;20064;-53
2021/10/31 08:23:37;;;;;;;23.25;18.40;;;;;;;13.47;92.77;99646.44;5038696;28;20040;-51
2021/10/31 08:26:03;;;;;;;26.10;20.30;;;;;;;13.55;90.58;99642.25;5035248;28;20055;-55
2021/10/31 08:28:33;;;;;;;23.77;18.55;;;;;;;13.55;91.10;99623.63;5039034;28;20066;-55
2021/10/31 08:31:00;;;;;;;24.37;19.63;;;;;;;13.60;89.57;99634.81;5036969;28;20041;-53
2021/10/31 08:33:32;;;;;;;23.17;19.15;;;;;;;13.56;89.33;99620.00;5039763;28;20048;-53
2021/10/31 08:36:04;;;;;;;24.67;19.38;;;;;;;13.63;88.77;99621.28;5029662;28;20044;-55
2021/10/31 08:38:30;;;;;;;26.63;19.42;;;;;;;13.48;89.66;99606.44;5039644;28;20052;-54
2021/10/31 08:40:57;;;;;;;23.40;19.35;;;;;;;13.56;89.92;99621.81;5035569;28;21766;-53
2021/10/31 08:43:24;;;;;;;25.30;18.15;;;;;;;13.50;89.98;99623.13;5034623;28;20111;-53
2021/10/31 08:45:51;;;;;;;24.23;18.67;;;;;;;13.55;91.34;99620.97;5035316;28;20056;-53
2021/10/31 08:48:19;;;;;;;21.48;17.23;;;;;;;13.79;91.23;99617.53;5034284;28;20045;-53
2021/10/31 08:50:46;;;;;;;23.58;18.42;;;;;;;14.05;91.05;99605.81;5037688;28;20048;-53
2021/10/31 08:53:13;;;;;;;24.38;19.17;;;;;;;14.27;87.76;99603.28;5037318;28;20406;-53
2021/10/31 08:55:40;;;;;;;24.33;19.00;;;;;;;14.41;85.22;99599.59;5027016;28;20502;-53
2021/10/31 08:58:08;;;;;;;23.42;19.02;;;;;;;14.29;85.34;99573.88;5030066;28;20049;-53
2021/10/31 09:00:35;;;;;;;25.00;18.52;;;;;;;14.34;85.22;99606.31;5036441;28;20052;-53
2021/10/31 09:03:05;;;;;;;22.95;19.27;;;;;;;14.36;85.99;99602.56;5035592;28;20632;-52
2021/10/31 09:05:33;;;;;;;21.77;17.80;;;;;;;14.39;85.15;99602.34;5029671;28;20053;-53
2021/10/31 09:08:01;;;;;;;21.83;17.23;;;;;;;14.46;85.39;99594.78;5029663;28;20045;-53
2021/10/31 09:10:28;;;;;;;21.85;16.98;;;;;;;14.62;85.14;99594.47;5035950;28;20044;-52
2021/10/31 09:12:55;;;;;;;24.10;18.40;;;;;;;14.77;83.51;99595.13;5015945;28;20052;-52
2021/10/31 09:15:21;;;;;;;22.17;17.30;;;;;;;14.88;83.23;99593.31;5026968;28;20048;-52
2021/10/31 09:17:48;;;;;;;21.30;17.02;;;;;;;15.06;83.20;99583.03;5034536;28;20045;-53
2021/10/31 09:20:14;;;;;;;21.05;17.23;;;;;;;15.22;80.29;99580.88;5037199;28;20051;-52
2021/10/31 09:22:41;;;;;;;21.45;16.48;;;;;;;15.44;81.88;99585.31;5040084;28;20049;-53
2021/10/31 09:25:08;;;;;;;19.60;15.40;;;;;;;15.90;80.03;99592.34;5032188;28;20064;-53
2021/10/31 09:27:36;;;;;;;19.85;15.75;;;;;;;16.11;77.50;99588.75;5031350;28;20048;-52
2021/10/31 09:30:07;;;;;;;18.98;14.65;;;;;;;16.18;76.85;99588.25;5032596;28;20037;-53
2021/10/31 09:32:38;;;;;;;;;;;;;;;16.35;76.21;99577.00;5043334;28;20079;-53
2021/10/31 09:35:05;;;;;;;17.30;14.30;;;;;;;16.45;76.00;99578.78;5037464;28;19924;-53
2021/10/31 09:37:32;;;;;;;16.48;13.38;;;;;;;16.71;75.62;99570.38;5028756;28;20041;-53
2021/10/31 09:40:01;;;;;;;16.23;13.05;;;;;;;17.06;75.55;99554.84;5040760;28;20055;-53
2021/10/31 09:42:27;;;;;;;16.02;13.15;;;;;;;17.62;70.77;99577.59;5036185;28;20501;-53
2021/10/31 09:44:54;;;;;;;15.75;12.57;;;;;;;18.00;68.95;99571.50;5045565;28;20051;-53
2021/10/31 09:47:22;;;;;;;17.08;13.10;;;;;;;18.09;66.93;99571.53;5031853;28;20041;-53
2021/10/31 09:49:50;;;;;;;15.77;12.43;;;;;;;18.19;68.75;99574.19;5037398;28;20056;-54
2021/10/31 09:52:17;;;;;;;14.63;12.98;;;;;;;18.32;66.73;99566.72;5039370;28;20413;-55
2021/10/31 09:54:46;;;;;;;14.35;12.45;;;;;;;18.21;66.78;99582.94;5032141;28;20107;-56
2021/10/31 09:57:13;;;;;;;16.73;12.32;;;;;;;18.26;67.70;99569.13;5034307;28;20042;-52
2021/10/31 09:59:50;;;;;;;13.95;12.35;;;;;;;18.18;66.33;99585.91;5057216;28;20298;-52
2021/10/31 10:02:36;;;;;;;14.60;12.05;;;;;;;17.85;67.52;99566.53;5052636;28;20492;-52
2021/10/31 10:05:05;;;;;;;14.55;11.80;;;;;;;17.45;69.86;99560.38;5028791;28;20112;-54
2021/10/31 10:07:32;;;;;;;14.38;12.13;;;;;;;17.24;70.47;99554.22;5026514;28;20491;-53
2021/10/31 10:09:58;;;;;;;13.88;12.38;;;;;;;17.04;70.92;99553.28;5042344;28;20324;-53
2021/10/31 10:12:28;;;;;;;14.75;12.63;;;;;;;16.84;73.01;99553.16;5037415;28;20525;-53
2021/10/31 10:15:08;;;;;;;14.83;12.07;;;;;;;16.76;73.56;99544.13;5036832;28;20490;-59
2021/10/31 10:17:48;;;;;;;15.05;11.98;;;;;;;16.71;73.97;99546.34;5032239;28;20533;-54
2021/10/31 10:20:16;;;;;;;13.73;11.05;;;;;;;16.77;74.28;99548.50;5040184;28;20085;-53
2021/10/31 10:22:43;;;;;;;14.27;11.70;;;;;;;16.79;74.31;99554.56;5031776;28;20040;-59
2021/10/31 10:25:11;;;;;;;12.85;10.88;;;;;;;16.81;74.36;99540.09;5038125;28;20137;-54
2021/10/31 10:27:51;;;;;;;15.35;11.73;;;;;;;16.84;73.42;99536.31;5026566;28;20052;-52
2021/10/31 10:30:21;;;;;;;15.10;11.13;;;;;;;16.99;72.69;99543.00;5035560;28;20045;-54
2021/10/31 10:32:50;;;;;;;14.82;10.60;;;;;;;17.16;73.23;99534.31;5044188;28;20041;-52
2021/10/31 10:35:23;;;;;;;13.60;10.68;;;;;;;17.22;72.19;99518.72;5038920;28;20052;-52
2021/10/31 10:37:50;;;;;;;14.05;11.48;;;;;;;17.13;72.26;99520.38;5028578;28;20095;-53
2021/10/31 10:40:21;;;;;;;14.25;11.63;;;;;;;16.99;72.85;99513.56;5039623;28;20048;-53
2021/10/31 10:42:51;;;;;;;;;;;;;;;17.05;73.36;99518.38;5035596;28;20525;-53
2021/10/31 10:45:22;;;;;;;12.75;10.38;;;;;;;16.98;73.67;99517.22;5029651;28;19928;-54
2021/10/31 10:47:53;;;;;;;13.55;10.45;;;;;;;16.94;73.51;99509.59;5023707;28;20349;-54
2021/10/31 10:50:24;;;;;;;13.38;11.10;;;;;;;16.81;74.04;99504.47;5037742;28;20527;-54
2021/10/31 10:52:51;;;;;;;13.52;11.50;;;;;;;16.71;74.34;99503.56;5029783;28;20056;-55
2021/10/31 10:55:23;;;;;;;15.60;9.48;;;;;;;16.66;74.80;99489.75;5027708;28;20402;-53
2021/10/31 10:57:53;;;;;;;13.48;10.43;;;;;;;16.64;75.61;99489.03;5022637;28;20057;-52
2021/10/31 11:00:35;;;;;;;10.20;8.05;;;;;;;16.73;75.79;99480.22;5030829;28;20052;-54
2021/10/31 11:03:08;;;;;;;13.10;9.75;;;;;;;16.84;75.92;99480.97;5038121;28;20503;-53
2021/10/31 11:05:39;;;;;;;9.13;7.65;;;;;;;16.97;75.37;99475.41;5035900;28;20044;-53
2021/10/31 11:08:11;;;;;;;9.02;7.68;;;;;;;17.03;75.12;99466.84;5026040;28;20399;-54
2021/10/31 11:10:45;;;;;;;9.18;7.28;;;;;;;17.11;74.83;99468.84;5039148;28;20052;-53
2021/10/31 11:13:11;;;;;;;8.32;6.95;;;;;;;17.23;74.79;99461.53;5036470;28;20049;-53
2021/10/31 11:15:38;;;;;;;9.55;7.63;;;;;;;17.57;74.04;99467.41;5035668;28;20231;-53
2021/10/31 11:18:06;;;;;;;10.10;8.07;;;;;;;17.78;71.69;99444.06;5032416;28;20048;-53
2021/10/31 11:20:37;;;;;;;10.27;8.07;;;;;;;17.82;71.00;99434.75;5044687;28;20048;-53
2021/10/31 11:23:07;;;;;;;8.88;7.68;;;;;;;17.72;71.86;99437.44;5036429;28;20055;-54
2021/10/31 11:25:37;;;;;;;9.15;7.78;;;;;;;17.72;71.53;99436.59;5038695;28;20045;-54